Time;durP1;ratioP1;P1;durP2;ratioP2;P2;SDS_P1;SDS_P2;PMS_P1;PMS_P2;Temp;Humidity;BMP_temperature;BMP_pressure;BME280_temperature;BME280_humidity;BME280_pressure;Samples;Min_cycle;Max_cycle;Signal;HPM_P1;HPM_P2
2021/08/12 00:04:47;;;;;;;11.43;7.53;;;;;;;13.76;65.74;99082.74;512270;1092;103383;-41
2021/08/12 00:14:54;;;;;;;;;;;;;;;13.72;66.04;99090.39;512022;1091;103172;-42
2021/08/12 00:25:02;;;;;;;8.63;6.90;;;;;;;13.57;66.10;99102.58;512184;1092;103070;-43
2021/08/12 00:35:11;;;;;;;11.00;7.60;;;;;;;13.36;66.71;99106.69;512207;1092;103135;-41
2021/08/12 00:45:19;;;;;;;10.60;7.20;;;;;;;13.35;66.93;99100.58;512051;1092;103501;-42
2021/08/12 00:55:26;;;;;;;10.53;5.87;;;;;;;13.44;67.14;99108.97;512064;1092;103150;-43
2021/08/12 01:05:34;;;;;;;10.55;7.00;;;;;;;13.42;67.23;99125.14;512110;1092;103169;-42
2021/08/12 01:15:47;;;;;;;12.65;6.70;;;;;;;13.34;67.33;99138.00;512124;1092;103461;-41
2021/08/12 01:25:55;;;;;;;11.20;7.10;;;;;;;13.26;67.64;99138.38;512047;1092;103074;-41
2021/08/12 01:36:06;;;;;;;10.47;8.43;;;;;;;13.19;68.17;99136.63;512942;1092;103360;-42
2021/08/12 01:46:16;;;;;;;10.77;8.07;;;;;;;13.23;68.48;99130.84;512271;1092;103606;-42
2021/08/12 01:56:26;;;;;;;11.63;7.67;;;;;;;13.23;68.39;99129.00;512066;1092;103536;-43
2021/08/12 02:06:32;;;;;;;9.77;7.63;;;;;;;13.18;68.56;99127.05;512335;1091;103143;-40
2021/08/12 02:16:40;;;;;;;10.37;7.27;;;;;;;13.09;68.74;99135.59;512265;1092;103137;-41
2021/08/12 02:26:52;;;;;;;11.40;7.60;;;;;;;13.09;68.66;99127.63;512038;1092;103162;-40
2021/08/12 02:37:03;;;;;;;15.37;9.10;;;;;;;12.94;68.79;99128.09;512154;1092;103125;-41
2021/08/12 02:47:14;;;;;;;12.20;8.80;;;;;;;12.69;69.27;99125.69;512146;1091;103511;-41
2021/08/12 02:57:23;;;;;;;9.43;7.27;;;;;;;12.63;69.18;99131.92;512145;1092;103107;-42
2021/08/12 03:07:34;;;;;;;9.18;6.18;;;;;;;12.56;69.17;99132.05;511988;1092;104335;-42
2021/08/12 03:17:42;;;;;;;12.00;6.60;;;;;;;12.46;69.28;99138.94;512273;1091;103224;-42
2021/08/12 03:27:48;;;;;;;9.17;6.60;;;;;;;12.39;69.59;99143.55;512207;1092;103534;-42
2021/08/12 03:37:56;;;;;;;10.63;7.90;;;;;;;12.35;70.05;99156.47;511931;1093;103580;-42
2021/08/12 03:48:03;;;;;;;9.33;7.83;;;;;;;12.37;69.94;99161.54;511891;1095;103157;-43
2021/08/12 03:58:10;;;;;;;12.50;6.90;;;;;;;12.55;69.99;99164.11;511993;1091;103137;-42
2021/08/12 04:08:18;;;;;;;10.43;6.57;;;;;;;12.76;70.32;99160.86;511975;1092;103179;-41
2021/08/12 04:18:26;;;;;;;8.27;6.33;;;;;;;12.95;70.23;99158.91;512120;1092;103052;-42
2021/08/12 04:28:34;;;;;;;13.43;8.00;;;;;;;13.58;70.56;99163.45;511931;1091;103055;-42
2021/08/12 04:38:42;;;;;;;14.00;6.87;;;;;;;15.85;70.09;99164.57;511913;1091;103627;-41
2021/08/12 04:48:50;;;;;;;11.97;6.63;;;;;;;17.65;68.86;99169.05;511985;1091;103070;-42
2021/08/12 04:59:00;;;;;;;11.23;7.07;;;;;;;18.38;67.38;99164.39;512074;1092;103101;-42
2021/08/12 05:09:08;;;;;;;12.47;6.87;;;;;;;19.87;66.58;99179.08;512099;1092;103152;-41
2021/08/12 05:19:16;;;;;;;11.55;8.08;;;;;;;21.24;65.34;99185.28;512013;1091;103577;-42
2021/08/12 05:29:23;;;;;;;10.80;6.25;;;;;;;21.92;64.16;99195.75;512042;1092;103166;-41
2021/08/12 05:39:31;;;;;;;7.47;6.37;;;;;;;22.55;62.40;99198.89;512098;1092;103072;-43
2021/08/12 05:49:38;;;;;;;7.97;6.53;;;;;;;22.89;61.20;99209.39;511996;1092;103131;-45
2021/08/12 05:59:46;;;;;;;8.80;6.45;;;;;;;23.40;60.02;99218.45;511931;1091;103498;-43
2021/08/12 06:09:52;;;;;;;;;;;;;;;23.51;58.39;99217.16;512012;1095;103113;-43
2021/08/12 06:19:59;;;;;;;11.80;6.35;;;;;;;23.79;57.86;99221.47;511920;1092;103118;-43
2021/08/12 06:30:10;;;;;;;9.50;7.00;;;;;;;23.58;57.34;99226.48;512176;1092;103151;-44
2021/08/12 06:40:20;;;;;;;9.80;6.57;;;;;;;23.92;56.55;99232.56;512618;1092;103229;-43
2021/08/12 06:50:28;;;;;;;7.27;6.23;;;;;;;24.56;55.12;99223.28;512129;1093;103546;-42
2021/08/12 07:00:36;;;;;;;9.50;5.77;;;;;;;25.17;54.50;99231.80;512051;1091;103197;-44
2021/08/12 07:10:45;;;;;;;5.27;4.60;;;;;;;25.31;51.90;99224.38;512105;1091;103473;-45
2021/08/12 07:20:53;;;;;;;8.63;5.57;;;;;;;25.40;52.74;99236.05;512105;1093;103600;-45
2021/08/12 07:31:01;;;;;;;6.27;4.57;;;;;;;25.58;51.18;99239.63;511909;1092;103146;-44
2021/08/12 07:41:08;;;;;;;7.20;4.63;;;;;;;25.81;51.02;99249.28;512237;1094;103136;-44
2021/08/12 07:51:18;;;;;;;8.57;4.00;;;;;;;25.51;49.78;99248.19;512314;1095;103066;-42
2021/08/12 08:01:26;;;;;;;4.83;3.63;;;;;;;25.46;46.59;99259.16;511928;1094;103476;-43
2021/08/12 08:11:34;;;;;;;6.60;3.80;;;;;;;25.64;47.65;99260.03;511843;1094;103075;-44
2021/08/12 08:21:42;;;;;;;7.40;2.63;;;;;;;25.41;46.10;99278.26;511971;1094;103521;-43
2021/08/12 08:31:50;;;;;;;4.80;3.23;;;;;;;24.60;46.18;99272.13;512146;1093;103192;-42
2021/08/12 08:41:58;;;;;;;7.30;3.27;;;;;;;24.94;46.73;99268.89;512028;1092;103118;-43
2021/08/12 08:52:09;;;;;;;3.23;2.93;;;;;;;25.62;45.11;99267.67;512070;1091;104186;-43
2021/08/12 09:02:16;;;;;;;3.87;3.30;;;;;;;25.55;42.98;99280.84;512187;1092;103090;-43
2021/08/12 09:12:25;;;;;;;5.53;3.90;;;;;;;25.47;44.35;99279.70;512087;1092;103161;-43
2021/08/12 09:22:32;;;;;;;5.57;3.17;;;;;;;25.77;44.03;99288.13;512106;1093;103133;-43
2021/08/12 09:32:51;;;;;;;4.93;2.87;;;;;;;26.09;43.56;99285.05;511995;1092;103131;-43
2021/08/12 09:43:01;;;;;;;2.65;2.40;;;;;;;26.33;43.04;99283.80;512130;1092;103234;-43
2021/08/12 10:03:23;;;;;;;2.88;2.60;;;;;;;25.96;42.58;99281.34;512304;1092;103433;-42
2021/08/12 10:13:31;;;;;;;3.37;3.07;;;;;;;26.18;41.61;99272.30;512116;1093;103160;-43
2021/08/12 10:23:38;;;;;;;6.80;3.40;;;;;;;25.70;41.50;99278.55;512028;1092;103439;-44
2021/08/12 10:33:47;;;;;;;6.30;3.80;;;;;;;26.01;41.77;99270.34;512055;1092;103218;-43
2021/08/12 10:43:55;;;;;;;6.93;3.70;;;;;;;26.87;42.26;99277.75;512133;1091;103133;-42
2021/08/12 10:54:17;;;;;;;3.73;3.43;;;;;;;27.06;41.32;99268.50;512212;1092;103556;-44
2021/08/12 11:04:50;;;;;;;3.30;2.53;;;;;;;26.85;40.27;99271.85;512222;1092;103101;-44
2021/08/12 11:14:57;;;;;;;4.37;3.20;;;;;;;26.44;40.55;99268.84;512127;1093;103135;-44
2021/08/12 11:25:08;;;;;;;6.10;3.00;;;;;;;25.64;40.91;99263.53;512005;1092;103178;-44
2021/08/12 11:35:16;;;;;;;4.40;2.97;;;;;;;25.62;41.64;99271.18;512025;1091;103129;-43
2021/08/12 11:45:25;;;;;;;3.25;2.60;;;;;;;26.11;40.28;99261.13;512177;1092;103111;-42
2021/08/12 11:55:37;;;;;;;6.23;3.37;;;;;;;25.79;38.79;99261.52;512597;1092;103511;-43
2021/08/12 12:05:53;;;;;;;7.77;3.03;;;;;;;25.33;40.66;99265.48;512276;1092;103486;-43
2021/08/12 12:16:01;;;;;;;4.03;3.23;;;;;;;25.49;40.62;99255.83;512048;1092;103476;-42
2021/08/12 12:26:18;;;;;;;4.65;3.10;;;;;;;25.67;40.28;99257.52;512169;1092;103394;-43
2021/08/12 12:36:26;;;;;;;3.40;2.55;;;;;;;25.15;40.55;99267.30;512091;1091;103430;-43
2021/08/12 12:46:34;;;;;;;3.05;2.75;;;;;;;24.83;41.05;99262.11;512156;1091;103539;-41
2021/08/12 12:56:45;;;;;;;3.73;2.70;;;;;;;24.54;41.19;99252.53;511936;1091;103134;-43
2021/08/12 13:06:55;;;;;;;3.93;3.00;;;;;;;24.38;42.51;99244.00;512071;1092;103164;-44
2021/08/12 13:17:01;;;;;;;8.23;4.33;;;;;;;24.42;42.97;99234.16;512108;1091;103117;-42
2021/08/12 13:27:10;;;;;;;2.87;2.60;;;;;;;24.77;40.89;99229.00;511969;1093;103505;-41
2021/08/12 13:37:18;;;;;;;5.40;3.27;;;;;;;25.08;39.83;99231.77;512259;1092;104278;-41
2021/08/12 13:47:26;;;;;;;3.20;2.47;;;;;;;25.21;40.32;99238.19;511909;1091;103126;-43
2021/08/12 13:57:34;;;;;;;6.87;3.50;;;;;;;25.02;39.45;99225.67;512157;1092;103130;-43
2021/08/12 14:07:42;;;;;;;3.40;3.10;;;;;;;25.22;39.54;99223.55;512079;1091;103154;-43
2021/08/12 14:17:50;;;;;;;4.73;2.93;;;;;;;25.55;39.58;99218.56;511801;1095;103133;-42
2021/08/12 14:27:58;;;;;;;3.83;3.40;;;;;;;25.92;39.52;99212.64;512124;1092;103137;-43
2021/08/12 14:38:06;;;;;;;6.40;2.63;;;;;;;26.10;38.89;99208.05;512001;1092;103114;-44
2021/08/12 14:48:14;;;;;;;4.07;2.43;;;;;;;25.94;38.60;99206.91;512154;1092;103172;-42
2021/08/12 14:58:23;;;;;;;3.80;2.55;;;;;;;25.92;38.28;99203.72;512071;1093;103469;-43
2021/08/12 15:08:36;;;;;;;7.07;2.70;;;;;;;25.65;38.08;99202.84;512087;1092;103164;-44
2021/08/12 15:18:42;;;;;;;3.45;2.73;;;;;;;25.55;38.67;99199.61;512255;1092;103128;-44
2021/08/12 15:28:50;;;;;;;4.17;2.73;;;;;;;25.39;38.67;99201.97;512098;1092;103147;-43
2021/08/12 15:38:58;;;;;;;7.43;2.70;;;;;;;25.32;39.28;99202.43;512021;1093;103203;-43
2021/08/12 15:49:06;;;;;;;3.63;2.70;;;;;;;25.20;38.85;99213.03;511996;1092;103150;-43
2021/08/12 15:59:13;;;;;;;3.30;2.73;;;;;;;24.99;39.24;99212.77;512065;1092;103178;-42
2021/08/12 16:09:21;;;;;;;4.43;3.83;;;;;;;24.82;39.41;99209.92;512101;1092;103143;-43
2021/08/12 16:19:29;;;;;;;4.53;2.60;;;;;;;24.58;39.68;99204.84;512005;1092;103415;-43
2021/08/12 16:29:38;;;;;;;15.33;3.00;;;;;;;24.41;39.87;99204.74;512141;1092;103281;-42
2021/08/12 16:39:46;;;;;;;5.67;4.70;;;;;;;24.18;39.96;99201.19;512215;1092;103129;-41
2021/08/12 16:49:52;;;;;;;10.87;4.07;;;;;;;23.79;40.54;99197.16;511903;1095;103529;-44
2021/08/12 17:00:00;;;;;;;10.25;3.55;;;;;;;23.46;41.35;99190.28;512063;1092;103149;-42
2021/08/12 17:10:04;;;;;;;6.00;3.33;;;;;;;23.17;42.30;99191.34;512157;1092;103472;-43
2021/08/12 17:20:14;;;;;;;4.30;3.90;;;;;;;22.80;42.87;99194.97;512090;1093;103226;-42
2021/08/12 17:30:22;;;;;;;4.37;2.47;;;;;;;22.30;43.33;99192.01;512212;1092;103066;-43
2021/08/12 17:40:30;;;;;;;8.20;4.20;;;;;;;21.82;44.74;99196.70;512381;1092;103185;-43
2021/08/12 17:50:38;;;;;;;7.87;3.90;;;;;;;21.34;45.92;99206.70;512203;1092;103138;-42
2021/08/12 18:00:44;;;;;;;8.78;4.78;;;;;;;20.74;46.78;99214.23;512086;1092;103412;-43
2021/08/12 18:10:53;;;;;;;9.77;6.70;;;;;;;20.20;48.04;99217.83;512195;1092;103143;-43
2021/08/12 18:21:04;;;;;;;12.00;6.17;;;;;;;19.84;49.23;99222.58;512154;1092;103125;-42
2021/08/12 18:31:12;;;;;;;8.93;7.05;;;;;;;19.42;50.61;99231.84;512098;1092;103387;-42
2021/08/12 18:41:20;;;;;;;25.23;9.03;;;;;;;19.07;51.50;99240.75;511955;1092;103387;-43
2021/08/12 18:51:27;;;;;;;18.30;10.20;;;;;;;18.67;52.15;99242.36;511891;1092;103136;-43
2021/08/12 19:11:43;;;;;;;24.43;11.00;;;;;;;18.23;53.80;99255.41;512104;1091;103136;-43
2021/08/12 19:21:51;;;;;;;19.93;11.83;;;;;;;17.81;54.30;99252.86;512051;1092;103511;-43
2021/08/12 19:31:59;;;;;;;20.45;11.38;;;;;;;17.51;55.31;99250.83;512185;1091;103184;-42
2021/08/12 19:42:05;;;;;;;21.20;11.23;;;;;;;17.40;55.89;99260.64;512168;1092;103128;-41
2021/08/12 19:52:13;;;;;;;21.90;10.67;;;;;;;17.16;56.32;99262.09;512094;1092;103166;-42
2021/08/12 20:02:23;;;;;;;17.70;11.23;;;;;;;16.99;56.83;99267.58;512039;1091;103225;-42
2021/08/12 20:12:31;;;;;;;20.63;12.90;;;;;;;16.94;57.28;99264.88;512182;1092;103171;-43
2021/08/12 20:22:39;;;;;;;22.43;13.00;;;;;;;16.97;57.58;99269.70;512018;1092;103409;-43
2021/08/12 20:42:53;;;;;;;29.75;17.90;;;;;;;16.73;58.49;99271.10;512006;1092;103470;-42
2021/08/12 20:53:01;;;;;;;35.33;20.83;;;;;;;16.65;58.83;99275.02;512054;1092;103063;-43
2021/08/12 21:03:09;;;;;;;40.60;26.30;;;;;;;16.58;59.34;99264.55;512198;1092;103058;-42
2021/08/12 21:13:17;;;;;;;38.18;26.13;;;;;;;16.67;59.86;99256.91;512239;1093;103534;-42
2021/08/12 21:33:32;;;;;;;32.85;22.40;;;;;;;16.52;60.79;99256.73;511976;1093;103082;-43
2021/08/12 21:43:41;;;;;;;29.37;20.97;;;;;;;16.57;60.96;99262.94;511944;1092;103466;-42
2021/08/12 21:53:48;;;;;;;53.33;30.43;;;;;;;16.28;61.44;99258.89;511847;1092;103439;-40
2021/08/12 22:03:59;;;;;;;38.93;23.27;;;;;;;16.19;61.99;99276.42;512214;1092;103514;-41
2021/08/12 22:24:14;;;;;;;35.27;21.27;;;;;;;15.76;63.01;99271.91;511816;1092;103141;-42
2021/08/12 22:34:21;;;;;;;34.43;19.90;;;;;;;15.72;63.81;99268.13;512150;1092;103159;-44
2021/08/12 22:44:30;;;;;;;27.50;18.88;;;;;;;15.77;64.25;99276.98;511806;1092;103162;-42
2021/08/12 22:54:37;;;;;;;31.80;18.57;;;;;;;15.80;64.42;99283.68;512277;1092;103545;-43
2021/08/12 23:04:44;;;;;;;27.37;15.63;;;;;;;15.69;64.51;99288.09;512122;1092;103055;-42
2021/08/12 23:14:51;;;;;;;24.70;14.47;;;;;;;15.71;64.61;99293.98;512050;1092;103114;-41
2021/08/12 23:24:59;;;;;;;23.93;14.23;;;;;;;15.64;64.71;99288.03;512037;1092;103156;-42
2021/08/12 23:35:09;;;;;;;27.80;15.70;;;;;;;15.52;64.92;99284.61;511852;1093;103126;-41
2021/08/12 23:45:16;;;;;;;25.20;15.27;;;;;;;15.33;65.28;99279.55;512051;1093;103135;-43
2021/08/12 23:55:23;;;;;;;20.25;14.90;;;;;;;15.19;65.63;99272.97;512137;1092;103088;-43
